Nikishka, Alaska
Current Conditions -  °F | °C
As of 5:53 AM on Friday 26 Dec 2014 (Local Time) from PAEN Reporting Station
Scattered Clouds Scattered Clouds  
Wind Chill: 25°   Ceiling: Unl
Heat Index: 33°   Visibility: 10mi
Dew Point: 27°   Wind: 10mph
Humidity: 78%   Direction: 160°SSE
Pressure: 29.87"   Gusts: NA
Location:  60.7377°N, 151.324°W
Report Text: PAEN 261453Z AUTO 16009KT 10SM SCT120 01/M03 A2987 RMK AO2 SLP119 T00061028 51006 TSNO
Loading
Personal Weather Stations






























Interactive Weather Map New forecast layout! Learn more

10-Day Weather Forecast

Advertisements
Track Severe Weather on mobile